Time;durP1;ratioP1;P1;durP2;ratioP2;P2;SDS_P1;SDS_P2;PMS_P1;PMS_P2;Temp;Humidity;BMP_temperature;BMP_pressure;BME280_temperature;BME280_humidity;BME280_pressure;Samples;Min_cycle;Max_cycle;Signal;HPM_P1;HPM_P2
2021/12/21 00:00:14;;;;;;;0.80;0.70;;;-0.70;99.90;;;;;;5055295;28;20886;-68
2021/12/21 00:02:45;;;;;;;0.70;0.40;;;-0.70;99.90;;;;;;5054993;28;20182;-68
2021/12/21 00:05:17;;;;;;;0.87;0.67;;;-0.70;99.90;;;;;;5054662;28;20913;-68
2021/12/21 00:07:43;;;;;;;1.03;0.83;;;-0.70;99.90;;;;;;5054857;28;20430;-68
2021/12/21 00:10:10;;;;;;;1.63;1.53;;;-0.70;99.90;;;;;;5054927;28;20942;-67
2021/12/21 00:12:38;;;;;;;0.70;0.60;;;-0.60;99.90;;;;;;5035741;28;20468;-68
2021/12/21 00:15:18;;;;;;;0.70;0.50;;;-0.60;99.90;;;;;;5034681;28;20820;-67
2021/12/21 00:17:53;;;;;;;0.70;0.50;;;-0.60;99.90;;;;;;5034949;28;20445;-68
2021/12/21 00:25:18;;;;;;;0.70;0.40;;;-0.60;99.90;;;;;;5045553;28;20176;-68
2021/12/21 00:27:46;;;;;;;0.80;0.60;;;-0.70;99.90;;;;;;5054233;28;20425;-68
2021/12/21 00:30:12;;;;;;;0.80;0.50;;;-0.70;99.90;;;;;;5054686;28;20886;-68
2021/12/21 00:32:38;;;;;;;0.70;0.40;;;-0.80;99.90;;;;;;5054412;28;20475;-68
2021/12/21 00:35:04;;;;;;;0.70;0.50;;;-0.80;99.90;;;;;;5053973;28;20426;-68
2021/12/21 00:37:30;;;;;;;0.70;0.50;;;-0.80;99.90;;;;;;5054280;28;20464;-69
2021/12/21 00:39:56;;;;;;;0.70;0.40;;;-0.90;99.90;;;;;;5051444;28;20927;-67
2021/12/21 00:42:22;;;;;;;0.70;0.40;;;-0.90;99.90;;;;;;5054086;28;20203;-68
2021/12/21 00:44:47;;;;;;;0.70;0.50;;;-0.90;99.90;;;;;;5054256;28;20497;-68
2021/12/21 00:47:15;;;;;;;0.80;0.63;;;-1.00;99.90;;;;;;5053939;28;20501;-68
2021/12/21 00:49:45;;;;;;;0.70;0.47;;;-0.90;99.90;;;;;;5053903;28;20186;-68
2021/12/21 00:52:14;;;;;;;0.70;0.50;;;-1.00;99.90;;;;;;5054140;28;20426;-68
2021/12/21 00:54:41;;;;;;;0.70;0.60;;;-1.00;99.90;;;;;;5054087;28;21002;-67
2021/12/21 00:57:07;;;;;;;0.70;0.43;;;-1.10;99.90;;;;;;5053106;28;20465;-69
2021/12/21 00:59:33;;;;;;;1.10;1.00;;;-1.00;99.90;;;;;;5054083;28;20486;-67
2021/12/21 01:02:00;;;;;;;0.90;0.70;;;-1.10;99.90;;;;;;5053655;28;20187;-68
2021/12/21 01:04:32;;;;;;;0.70;0.50;;;-1.20;99.90;;;;;;5054034;28;20914;-68
2021/12/21 01:12:15;;;;;;;0.70;0.47;;;-1.10;99.90;;;;;;5046998;28;20445;-67
2021/12/21 01:17:23;;;;;;;0.70;0.50;;;-1.20;99.90;;;;;;5049192;28;20492;-69
2021/12/21 01:20:00;;;;;;;0.70;0.40;;;-1.30;99.90;;;;;;5052503;28;20793;-67
2021/12/21 01:35:46;;;;;;;0.70;0.50;;;-1.40;99.90;;;;;;5052976;28;20469;-68
2021/12/21 01:40:57;;;;;;;0.70;0.50;;;-1.40;99.90;;;;;;5053263;28;20914;-68
2021/12/21 01:43:37;;;;;;;0.70;0.50;;;-1.40;99.90;;;;;;5053100;28;20441;-68
2021/12/21 01:51:31;;;;;;;0.70;0.40;;;-1.30;99.90;;;;;;5053407;28;20430;-68
2021/12/21 01:53:57;;;;;;;0.70;0.47;;;-1.40;99.90;;;;;;5052734;28;20445;-67
2021/12/21 01:56:23;;;;;;;0.80;0.70;;;-1.30;99.90;;;;;;5052403;28;20202;-68
2021/12/21 01:58:49;;;;;;;0.70;0.50;;;-1.40;99.90;;;;;;5052959;28;20167;-67
2021/12/21 02:01:17;;;;;;;0.70;0.40;;;-1.30;99.90;;;;;;5048565;28;20492;-67
2021/12/21 02:03:47;;;;;;;0.70;0.40;;;-1.30;99.90;;;;;;5032932;28;20210;-69
2021/12/21 02:06:15;;;;;;;0.70;0.40;;;-1.40;99.90;;;;;;5052610;28;20486;-69
2021/12/21 02:08:41;;;;;;;0.80;0.70;;;-1.50;99.90;;;;;;5032750;28;20422;-69
2021/12/21 02:11:06;;;;;;;0.70;0.43;;;-1.50;99.90;;;;;;5042655;28;20518;-69
2021/12/21 02:13:35;;;;;;;0.70;0.40;;;-1.50;99.90;;;;;;5052398;28;20923;-68
2021/12/21 02:16:01;;;;;;;0.70;0.40;;;-1.50;99.90;;;;;;5052161;28;20190;-68
2021/12/21 02:21:01;;;;;;;1.73;1.63;;;-1.50;99.90;;;;;;5032857;28;20636;-67
2021/12/21 02:23:35;;;;;;;0.70;0.40;;;-1.50;99.90;;;;;;5032596;28;20676;-69
2021/12/21 02:31:07;;;;;;;0.70;0.50;;;-1.30;99.90;;;;;;5052482;28;20903;-69
2021/12/21 02:33:34;;;;;;;0.70;0.50;;;-1.40;99.90;;;;;;5052258;28;20427;-69
2021/12/21 02:36:00;;;;;;;0.70;0.40;;;-1.30;99.90;;;;;;5051685;28;20455;-68
2021/12/21 02:38:27;;;;;;;0.70;0.40;;;-1.30;99.90;;;;;;5051823;28;20425;-68
2021/12/21 02:40:53;;;;;;;0.70;0.70;;;-1.40;99.90;;;;;;5050731;28;20196;-67
2021/12/21 02:43:19;;;;;;;0.70;0.40;;;-1.50;99.90;;;;;;5040453;28;20446;-67
2021/12/21 02:45:45;;;;;;;0.70;0.40;;;-1.40;99.90;;;;;;5031893;28;20480;-68
2021/12/21 02:48:11;;;;;;;0.70;0.40;;;-1.50;99.90;;;;;;5032290;28;20407;-67
2021/12/21 02:50:38;;;;;;;0.70;0.40;;;-1.50;99.90;;;;;;5035449;28;20484;-68
2021/12/21 02:53:04;;;;;;;0.70;0.50;;;-1.60;99.90;;;;;;5050442;28;20452;-68
2021/12/21 02:55:30;;;;;;;0.70;0.47;;;-1.60;99.90;;;;;;5051686;28;20433;-68
2021/12/21 02:57:57;;;;;;;0.70;0.43;;;-1.60;99.90;;;;;;5051838;28;20546;-68
2021/12/21 03:00:28;;;;;;;0.70;0.50;;;-1.60;99.90;;;;;;5051723;28;20417;-68
2021/12/21 03:02:53;;;;;;;1.00;0.83;;;-1.70;99.90;;;;;;5051932;28;20471;-67
2021/12/21 03:05:20;;;;;;;0.70;0.50;;;-1.70;99.90;;;;;;5051498;28;20904;-67
2021/12/21 03:10:23;;;;;;;0.70;0.50;;;-1.70;99.90;;;;;;5051882;28;20437;-67
2021/12/21 03:15:27;;;;;;;0.70;0.50;;;-1.60;99.90;;;;;;5051777;28;20409;-68
2021/12/21 03:17:54;;;;;;;1.10;1.00;;;-1.60;99.90;;;;;;5051765;28;20453;-68
2021/12/21 03:20:20;;;;;;;1.27;0.70;;;-1.60;99.90;;;;;;5051824;28;20412;-67
2021/12/21 03:22:46;;;;;;;0.70;0.50;;;-1.70;99.90;;;;;;5051201;28;20877;-69
2021/12/21 03:25:12;;;;;;;0.70;0.50;;;-1.70;99.90;;;;;;5033064;28;20422;-67
2021/12/21 03:27:38;;;;;;;0.70;0.50;;;-1.70;99.90;;;;;;5031726;28;20203;-67
2021/12/21 03:30:07;;;;;;;0.70;0.50;;;-1.70;99.90;;;;;;5035334;28;20517;-67
2021/12/21 03:32:33;;;;;;;0.70;0.50;;;-1.60;99.90;;;;;;5035609;28;20860;-67
2021/12/21 03:34:58;;;;;;;0.70;0.40;;;-1.70;99.90;;;;;;5051826;28;20452;-68
2021/12/21 03:37:24;;;;;;;0.70;0.60;;;-1.70;99.90;;;;;;5054803;28;20225;-68
2021/12/21 03:39:52;;;;;;;1.50;1.40;;;-1.70;99.90;;;;;;5035901;28;20181;-68
2021/12/21 03:42:18;;;;;;;0.70;0.60;;;-1.70;99.90;;;;;;5035471;28;20183;-67
2021/12/21 03:44:44;;;;;;;0.70;0.40;;;-1.70;99.90;;;;;;5034259;28;20426;-68
2021/12/21 03:47:11;;;;;;;0.70;0.40;;;-1.80;99.90;;;;;;5035277;28;20797;-68
2021/12/21 03:52:12;;;;;;;0.70;0.40;;;-1.70;99.90;;;;;;5055236;28;20952;-67
2021/12/21 03:54:39;;;;;;;0.70;0.50;;;-1.70;99.90;;;;;;5053400;28;20440;-67
2021/12/21 03:57:04;;;;;;;0.70;0.50;;;-1.70;99.90;;;;;;5054629;28;20514;-67
2021/12/21 03:59:30;;;;;;;0.70;0.43;;;-1.70;99.90;;;;;;5053976;28;20417;-67
2021/12/21 04:01:57;;;;;;;0.70;0.40;;;-1.70;99.90;;;;;;5054934;28;20171;-67
2021/12/21 04:04:24;;;;;;;0.70;0.40;;;-1.70;99.90;;;;;;5038332;28;20442;-68
2021/12/21 04:06:50;;;;;;;1.53;1.43;;;-1.70;99.90;;;;;;5034816;28;20464;-68
2021/12/21 04:09:15;;;;;;;0.70;0.47;;;-1.80;99.90;;;;;;5035172;28;20495;-67
2021/12/21 04:11:41;;;;;;;0.70;0.40;;;-1.80;99.90;;;;;;5044864;28;20186;-67
2021/12/21 04:14:07;;;;;;;0.70;0.40;;;-1.80;99.90;;;;;;5054249;28;20183;-67
2021/12/21 04:16:33;;;;;;;0.80;0.70;;;-1.80;99.90;;;;;;5054656;28;20456;-67
2021/12/21 04:18:59;;;;;;;0.70;0.50;;;-1.80;99.90;;;;;;5054917;28;20543;-68
2021/12/21 04:21:24;;;;;;;0.70;0.60;;;-1.80;99.90;;;;;;5054770;28;20175;-68
2021/12/21 04:23:51;;;;;;;0.70;0.60;;;-1.80;99.90;;;;;;5054524;28;20241;-67
2021/12/21 04:26:17;;;;;;;0.70;0.50;;;-1.90;99.90;;;;;;5054650;28;20570;-67
2021/12/21 04:28:43;;;;;;;0.70;0.40;;;-2.00;99.90;;;;;;5054236;28;20802;-67
2021/12/21 04:31:10;;;;;;;0.70;0.50;;;-2.00;99.90;;;;;;5054710;28;20416;-67
2021/12/21 04:33:37;;;;;;;0.70;0.40;;;-2.00;99.90;;;;;;5054352;28;20492;-66
2021/12/21 04:36:04;;;;;;;0.70;0.50;;;-1.90;99.90;;;;;;5053838;28;20488;-67
2021/12/21 04:38:35;;;;;;;0.70;0.40;;;-1.90;99.90;;;;;;5054500;28;20993;-67
2021/12/21 04:41:08;;;;;;;0.70;0.47;;;-1.90;99.90;;;;;;5053399;28;20421;-68
2021/12/21 04:43:35;;;;;;;0.70;0.50;;;-1.90;99.90;;;;;;5054365;28;20435;-69
2021/12/21 04:46:00;;;;;;;0.90;0.90;;;-1.90;99.90;;;;;;5052365;28;20424;-67
2021/12/21 04:48:26;;;;;;;0.70;0.40;;;-1.90;99.90;;;;;;5054229;28;20427;-67
2021/12/21 04:50:51;;;;;;;0.70;0.40;;;-2.00;99.90;;;;;;5054112;28;20569;-67
2021/12/21 04:53:17;;;;;;;1.07;0.97;;;-2.00;99.90;;;;;;5052868;28;20203;-67
2021/12/21 04:55:43;;;;;;;0.70;0.40;;;-2.00;99.90;;;;;;5053780;28;20190;-67
2021/12/21 04:58:09;;;;;;;0.70;0.50;;;-2.00;99.90;;;;;;5054233;28;20205;-69
2021/12/21 05:00:35;;;;;;;1.00;0.90;;;-2.00;99.90;;;;;;5053634;28;20183;-67
2021/12/21 05:03:01;;;;;;;1.27;1.17;;;-2.00;99.90;;;;;;5053918;28;20424;-67
2021/12/21 05:05:28;;;;;;;0.70;0.40;;;-2.00;99.90;;;;;;5053597;28;20417;-67
2021/12/21 05:08:06;;;;;;;0.70;0.50;;;-2.10;99.90;;;;;;5053337;28;20594;-69
2021/12/21 05:10:46;;;;;;;0.70;0.43;;;-2.10;99.90;;;;;;5054082;28;20496;-66
2021/12/21 05:13:14;;;;;;;0.70;0.40;;;-2.10;99.90;;;;;;5052785;28;20448;-69
2021/12/21 05:15:39;;;;;;;0.70;0.40;;;-2.00;99.90;;;;;;5053333;28;20423;-67
2021/12/21 05:18:05;;;;;;;6.73;2.00;;;-2.10;99.90;;;;;;5053557;28;20459;-66
2021/12/21 05:20:31;;;;;;;0.70;0.50;;;-2.10;99.90;;;;;;5053881;28;20231;-66
2021/12/21 05:22:56;;;;;;;0.70;0.40;;;-2.20;99.90;;;;;;5052769;28;20198;-66
2021/12/21 05:25:22;;;;;;;0.70;0.40;;;-2.20;99.90;;;;;;5053345;28;20167;-67
2021/12/21 05:27:47;;;;;;;0.70;0.40;;;-2.10;99.90;;;;;;5053610;28;20189;-68
2021/12/21 05:30:15;;;;;;;0.70;0.40;;;-2.10;99.90;;;;;;5053315;28;20588;-66
2021/12/21 05:32:41;;;;;;;0.70;0.50;;;-2.10;99.90;;;;;;5052168;28;20190;-66
2021/12/21 05:35:07;;;;;;;0.90;0.80;;;-2.20;99.90;;;;;;5053038;28;20413;-66
2021/12/21 05:37:34;;;;;;;0.70;0.40;;;-2.20;99.90;;;;;;5036296;28;20982;-66
2021/12/21 05:40:10;;;;;;;0.70;0.50;;;-2.30;99.90;;;;;;5033363;28;20434;-67
2021/12/21 05:42:36;;;;;;;0.70;0.40;;;-2.20;99.90;;;;;;5033310;28;20473;-68
2021/12/21 05:45:03;;;;;;;2.13;0.93;;;-2.20;99.90;;;;;;5052493;28;20835;-66
2021/12/21 05:47:28;;;;;;;0.70;0.40;;;-2.20;99.90;;;;;;5053214;28;20182;-66
2021/12/21 05:49:54;;;;;;;0.70;0.40;;;-2.20;99.90;;;;;;5052532;28;20543;-67
2021/12/21 05:52:19;;;;;;;0.70;0.50;;;-2.20;99.90;;;;;;5053026;28;20190;-66
2021/12/21 05:54:45;;;;;;;0.70;0.50;;;-2.20;99.90;;;;;;5052743;28;20642;-69
2021/12/21 05:57:10;;;;;;;0.70;0.47;;;-2.20;99.90;;;;;;5052236;28;20199;-66
2021/12/21 05:59:36;;;;;;;0.70;0.43;;;-2.20;99.90;;;;;;5052947;28;20254;-67
2021/12/21 06:02:02;;;;;;;0.70;0.50;;;-2.20;99.90;;;;;;5050702;28;20199;-66
2021/12/21 06:04:27;;;;;;;0.70;0.40;;;-2.40;99.90;;;;;;5052889;28;20241;-66
2021/12/21 06:06:53;;;;;;;0.70;0.40;;;-2.40;99.90;;;;;;5052593;28;20420;-67
2021/12/21 06:09:19;;;;;;;0.70;0.40;;;-2.40;99.90;;;;;;5052825;28;20166;-67
2021/12/21 06:12:00;;;;;;;0.70;0.40;;;-2.40;99.90;;;;;;5052361;28;20197;-67
2021/12/21 06:22:46;;;;;;;0.70;0.50;;;-2.40;99.90;;;;;;5052478;28;20829;-66
2021/12/21 06:27:57;;;;;;;0.70;0.40;;;-2.40;99.90;;;;;;5052500;28;20535;-66
2021/12/21 06:30:22;;;;;;;0.70;0.40;;;-2.40;99.90;;;;;;5052310;28;20512;-68
2021/12/21 06:32:48;;;;;;;0.70;0.50;;;-2.50;99.90;;;;;;5052451;28;20191;-66
2021/12/21 06:35:14;;;;;;;0.70;0.50;;;-2.50;99.90;;;;;;5050591;28;20174;-67
2021/12/21 06:37:40;;;;;;;2.40;2.30;;;-2.50;99.90;;;;;;5052162;28;20203;-67
2021/12/21 06:40:06;;;;;;;1.57;1.00;;;-2.50;99.90;;;;;;5050911;28;20508;-68
2021/12/21 06:42:32;;;;;;;0.70;0.50;;;-2.40;99.90;;;;;;5052220;28;20190;-68
2021/12/21 06:44:59;;;;;;;0.70;0.40;;;-2.40;99.90;;;;;;5050490;28;20421;-67
2021/12/21 06:52:55;;;;;;;1.17;1.07;;;-2.30;99.90;;;;;;5034782;28;20468;-67
2021/12/21 06:55:21;;;;;;;0.70;0.50;;;-2.40;99.90;;;;;;5031756;28;20427;-67
2021/12/21 06:57:46;;;;;;;0.70;0.40;;;-2.40;99.90;;;;;;5036255;28;20202;-67
2021/12/21 07:00:14;;;;;;;0.70;0.47;;;-2.30;99.90;;;;;;5050573;28;20202;-67
2021/12/21 07:02:40;;;;;;;0.70;0.50;;;-2.40;99.90;;;;;;5050353;28;20225;-68
2021/12/21 07:05:07;;;;;;;0.70;0.40;;;-2.40;99.90;;;;;;5051052;28;20418;-69
2021/12/21 07:07:33;;;;;;;0.70;0.50;;;-2.40;99.90;;;;;;5051751;28;20930;-67
2021/12/21 07:10:02;;;;;;;0.70;0.50;;;-2.40;99.90;;;;;;5066578;28;20417;-67
2021/12/21 07:20:28;;;;;;;0.70;0.40;;;-2.40;99.90;;;;;;5051438;28;20768;-68
2021/12/21 07:22:53;;;;;;;1.00;0.70;;;-2.50;99.90;;;;;;5051328;28;20417;-68
2021/12/21 07:25:19;;;;;;;0.70;0.60;;;-2.50;99.90;;;;;;5050020;28;20206;-68
2021/12/21 07:27:44;;;;;;;0.70;0.50;;;-2.50;99.90;;;;;;5037831;28;20178;-67
2021/12/21 07:30:11;;;;;;;0.80;0.60;;;-2.50;99.90;;;;;;5049851;28;20185;-68
2021/12/21 07:32:37;;;;;;;0.70;0.50;;;-2.50;99.90;;;;;;5051291;28;20190;-68
2021/12/21 07:35:03;;;;;;;0.70;0.40;;;-2.50;99.90;;;;;;5050999;28;20417;-69
2021/12/21 07:37:29;;;;;;;0.70;0.40;;;-2.50;99.90;;;;;;5051290;28;20459;-68
2021/12/21 07:39:55;;;;;;;0.70;0.40;;;-2.50;99.90;;;;;;5050796;28;20398;-68
2021/12/21 07:42:21;;;;;;;0.70;0.60;;;-2.40;99.90;;;;;;5051110;28;20285;-68
2021/12/21 07:44:48;;;;;;;0.70;0.50;;;-2.40;99.90;;;;;;5051381;28;20408;-69
2021/12/21 07:47:14;;;;;;;0.70;0.40;;;-2.30;99.90;;;;;;5051111;28;20763;-68
2021/12/21 07:49:40;;;;;;;0.70;0.53;;;-2.30;99.90;;;;;;5051125;28;20424;-68
2021/12/21 07:52:09;;;;;;;0.70;0.50;;;-2.30;99.90;;;;;;5051284;28;20475;-68
2021/12/21 07:54:35;;;;;;;0.70;0.50;;;-2.30;99.90;;;;;;5050527;28;20289;-68
2021/12/21 07:57:00;;;;;;;0.70;0.40;;;-2.30;99.90;;;;;;5051033;28;20507;-68
2021/12/21 07:59:26;;;;;;;0.70;0.50;;;-2.20;99.90;;;;;;5049696;28;20444;-68
2021/12/21 08:01:53;;;;;;;0.80;0.70;;;-2.10;99.90;;;;;;5051005;28;20320;-68
2021/12/21 08:04:21;;;;;;;0.70;0.40;;;-2.10;99.90;;;;;;5049743;28;20414;-68
2021/12/21 08:06:49;;;;;;;0.70;0.50;;;-2.00;99.90;;;;;;5050992;28;20417;-68
2021/12/21 08:09:15;;;;;;;0.70;0.40;;;-2.00;99.90;;;;;;5041037;28;20981;-68
2021/12/21 08:14:07;;;;;;;0.70;0.40;;;-1.80;99.90;;;;;;5034220;28;20414;-68
2021/12/21 08:16:33;;;;;;;0.70;0.50;;;-1.70;99.90;;;;;;5053193;28;20199;-68
2021/12/21 08:18:59;;;;;;;2.10;2.00;;;-1.10;99.90;;;;;;5054719;28;20467;-68
2021/12/21 08:21:26;;;;;;;0.70;0.50;;;0.00;99.90;;;;;;5054792;28;20886;-68
2021/12/21 08:23:51;;;;;;;1.10;1.10;;;1.10;99.90;;;;;;5053294;28;20243;-68
2021/12/21 08:26:17;;;;;;;0.80;0.80;;;1.40;99.90;;;;;;5052976;28;20503;-68
2021/12/21 08:28:43;;;;;;;0.70;0.50;;;2.30;99.90;;;;;;5069932;28;20565;-68
2021/12/21 08:31:12;;;;;;;0.70;0.50;;;3.00;99.90;;;;;;5054566;28;20249;-68
2021/12/21 08:33:38;;;;;;;2.77;1.20;;;3.90;99.90;;;;;;5052839;28;20433;-68
2021/12/21 08:36:06;;;;;;;0.80;0.70;;;5.00;99.90;;;;;;5036126;28;20568;-68
2021/12/21 08:38:32;;;;;;;2.30;2.20;;;5.60;99.90;;;;;;5034817;28;20418;-68
2021/12/21 08:40:59;;;;;;;0.80;0.73;;;6.60;99.90;;;;;;5038755;28;20504;-68
2021/12/21 08:43:28;;;;;;;0.70;0.50;;;6.90;99.90;;;;;;5038028;28;20426;-68
2021/12/21 08:45:55;;;;;;;2.83;1.30;;;7.30;99.90;;;;;;5033099;28;20406;-68
2021/12/21 08:48:24;;;;;;;0.80;0.73;;;7.70;99.90;;;;;;5045232;28;20414;-68
2021/12/21 08:50:53;;;;;;;0.93;0.80;;;7.50;99.90;;;;;;5054372;28;20408;-68
2021/12/21 08:53:20;;;;;;;0.90;0.73;;;7.70;99.90;;;;;;5053753;28;20448;-68
2021/12/21 08:55:45;;;;;;;1.33;0.80;;;6.90;99.90;;;;;;5053542;28;20460;-68
2021/12/21 08:58:12;;;;;;;0.80;0.70;;;6.70;99.90;;;;;;5054091;28;20473;-67
2021/12/21 09:00:38;;;;;;;1.37;1.00;;;6.90;99.90;;;;;;5053467;28;20167;-67
2021/12/21 09:03:05;;;;;;;2.50;2.03;;;7.00;99.90;;;;;;5053514;28;20941;-68
2021/12/21 09:05:31;;;;;;;1.13;1.03;;;7.20;99.90;;;;;;5053647;28;20397;-68
2021/12/21 09:07:59;;;;;;;0.80;0.80;;;7.20;99.90;;;;;;5053770;28;20520;-68
2021/12/21 09:10:25;;;;;;;1.23;1.13;;;7.50;99.90;;;;;;5053972;28;20405;-68
2021/12/21 09:12:51;;;;;;;1.63;1.40;;;7.80;99.90;;;;;;5053840;28;20422;-68
2021/12/21 09:15:18;;;;;;;0.90;0.90;;;8.00;99.90;;;;;;5034269;28;20458;-68
2021/12/21 09:17:44;;;;;;;0.70;0.60;;;7.70;99.90;;;;;;5040541;28;20456;-68
2021/12/21 09:20:13;;;;;;;0.70;0.60;;;7.90;99.90;;;;;;5053629;28;20401;-68
2021/12/21 09:22:39;;;;;;;0.80;0.70;;;7.40;99.90;;;;;;5052757;28;20437;-68
2021/12/21 09:25:05;;;;;;;0.73;0.60;;;7.10;99.90;;;;;;5054223;28;20914;-68
2021/12/21 09:27:31;;;;;;;1.43;1.33;;;6.40;99.90;;;;;;5052897;28;21072;-69
2021/12/21 09:29:57;;;;;;;1.50;1.40;;;7.20;99.90;;;;;;5053096;28;20492;-68
2021/12/21 09:32:22;;;;;;;1.13;1.03;;;7.90;99.90;;;;;;5053458;28;20536;-69
2021/12/21 09:34:48;;;;;;;0.70;0.50;;;8.20;99.90;;;;;;5053218;28;20252;-69
2021/12/21 09:37:17;;;;;;;0.80;0.60;;;8.00;99.90;;;;;;5053022;28;20198;-68
2021/12/21 09:39:44;;;;;;;1.63;1.53;;;7.00;99.90;;;;;;5054004;28;20209;-68
2021/12/21 09:42:13;;;;;;;5.50;1.33;;;7.80;99.90;;;;;;5055709;28;20461;-70
2021/12/21 09:44:39;;;;;;;0.90;0.90;;;8.40;99.90;;;;;;5054915;28;20421;-68
2021/12/21 09:47:06;;;;;;;0.97;0.97;;;7.70;99.90;;;;;;5053238;28;20452;-67
2021/12/21 09:49:32;;;;;;;6.00;1.40;;;7.50;98.40;;;;;;5052912;28;20261;-68
2021/12/21 09:51:57;;;;;;;1.53;1.10;;;7.80;98.90;;;;;;5052778;28;20501;-68
2021/12/21 09:54:25;;;;;;;1.00;1.00;;;7.20;99.50;;;;;;5053007;28;20182;-69
2021/12/21 09:56:50;;;;;;;1.70;1.60;;;7.90;99.90;;;;;;5052062;28;20531;-69
2021/12/21 09:59:16;;;;;;;1.50;1.40;;;7.50;99.70;;;;;;5053106;28;20431;-66
2021/12/21 10:01:42;;;;;;;0.97;0.70;;;7.30;99.90;;;;;;5052716;28;20236;-68
2021/12/21 10:04:07;;;;;;;0.80;0.80;;;6.80;99.90;;;;;;5053411;28;20155;-68
2021/12/21 10:06:43;;;;;;;1.20;0.93;;;6.40;99.90;;;;;;5053355;28;20233;-68
2021/12/21 10:09:09;;;;;;;0.70;0.50;;;6.80;99.90;;;;;;5040935;28;20171;-68
2021/12/21 10:11:44;;;;;;;0.80;0.70;;;7.20;99.90;;;;;;5038332;28;20418;-68
2021/12/21 10:14:10;;;;;;;0.70;0.50;;;7.20;99.90;;;;;;5052216;28;20315;-68
2021/12/21 10:16:35;;;;;;;0.70;0.60;;;7.60;99.90;;;;;;5052161;28;20448;-68
2021/12/21 10:19:01;;;;;;;0.70;0.57;;;7.90;99.90;;;;;;5038445;28;20626;-69
2021/12/21 10:21:29;;;;;;;0.70;0.50;;;8.20;99.90;;;;;;5043085;28;20178;-69
2021/12/21 10:23:54;;;;;;;2.30;2.20;;;9.10;99.90;;;;;;5051175;28;20540;-68
2021/12/21 10:26:23;;;;;;;1.27;1.17;;;9.60;96.50;;;;;;5047810;28;20508;-68
2021/12/21 10:28:51;;;;;;;1.07;0.67;;;9.00;93.60;;;;;;5052592;28;20175;-69
2021/12/21 10:31:35;;;;;;;0.80;0.70;;;9.00;94.90;;;;;;5050815;28;20429;-68
2021/12/21 10:34:09;;;;;;;1.23;0.70;;;9.00;93.40;;;;;;5052264;28;20436;-68
2021/12/21 10:36:45;;;;;;;1.40;1.30;;;9.60;90.30;;;;;;5048639;28;20480;-69
2021/12/21 10:39:31;;;;;;;0.70;0.53;;;10.30;90.70;;;;;;5051143;28;20421;-69
2021/12/21 10:42:00;;;;;;;2.63;2.43;;;10.20;90.40;;;;;;5051811;28;20473;-69
2021/12/21 10:44:26;;;;;;;1.87;1.77;;;10.50;83.80;;;;;;5051506;28;20428;-69
2021/12/21 10:46:54;;;;;;;0.70;0.60;;;10.00;81.50;;;;;;5051873;28;20423;-69
2021/12/21 10:49:26;;;;;;;0.70;0.50;;;10.40;85.00;;;;;;5051986;28;20167;-69
2021/12/21 10:52:05;;;;;;;1.07;0.97;;;10.80;83.20;;;;;;5047103;28;20410;-69
2021/12/21 10:54:36;;;;;;;3.47;1.13;;;9.50;81.90;;;;;;5050214;28;20420;-68
2021/12/21 10:57:05;;;;;;;1.47;0.83;;;10.00;81.90;;;;;;5051596;28;20473;-68
2021/12/21 10:59:35;;;;;;;0.80;0.50;;;10.00;79.60;;;;;;5050773;28;20415;-69
2021/12/21 11:02:30;;;;;;;6.73;1.53;;;10.50;79.80;;;;;;5049756;28;20445;-68
2021/12/21 11:05:01;;;;;;;2.40;1.47;;;10.70;76.50;;;;;;5047894;28;20429;-68
2021/12/21 11:10:12;;;;;;;0.90;0.70;;;11.00;74.30;;;;;;5032546;28;20508;-68
2021/12/21 11:12:47;;;;;;;1.73;1.63;;;11.80;76.10;;;;;;5032469;28;20461;-70
2021/12/21 11:15:18;;;;;;;1.00;0.90;;;13.10;76.40;;;;;;5037041;28;20486;-69
2021/12/21 11:17:44;;;;;;;1.43;0.73;;;14.20;71.10;;;;;;5045401;28;20834;-68
2021/12/21 11:20:12;;;;;;;3.37;2.73;;;15.50;66.70;;;;;;5034731;28;20455;-68
2021/12/21 11:22:40;;;;;;;0.90;0.83;;;15.30;59.30;;;;;;5051736;28;20942;-69
2021/12/21 11:25:07;;;;;;;1.90;1.07;;;14.90;60.20;;;;;;5051477;28;20429;-68
2021/12/21 11:27:35;;;;;;;1.30;1.20;;;15.00;60.20;;;;;;5051796;28;21040;-68
2021/12/21 11:30:04;;;;;;;2.63;1.60;;;15.10;58.70;;;;;;5043144;28;20429;-68
2021/12/21 11:32:32;;;;;;;2.80;2.00;;;16.30;57.50;;;;;;5042692;28;20445;-68
2021/12/21 11:37:45;;;;;;;1.07;0.97;;;17.10;55.40;;;;;;5052135;28;20468;-68
2021/12/21 11:40:14;;;;;;;2.33;1.50;;;18.20;53.00;;;;;;5051709;28;20472;-68
2021/12/21 11:43:06;;;;;;;1.97;1.73;;;18.90;51.70;;;;;;5050710;28;20791;-69
2021/12/21 11:45:45;;;;;;;1.47;1.20;;;18.20;49.60;;;;;;5045803;28;20467;-68
2021/12/21 11:48:10;;;;;;;1.30;1.20;;;17.00;49.90;;;;;;5050266;28;20413;-68
2021/12/21 11:50:43;;;;;;;1.53;1.13;;;16.10;49.70;;;;;;5054282;28;20462;-68
2021/12/21 11:53:12;;;;;;;1.50;1.40;;;16.90;50.50;;;;;;5054463;28;20248;-68
2021/12/21 11:55:44;;;;;;;4.00;1.70;;;17.20;50.10;;;;;;5054746;28;20444;-69
2021/12/21 11:58:26;;;;;;;1.03;0.93;;;15.20;48.90;;;;;;5065327;28;20448;-68
2021/12/21 12:00:56;;;;;;;2.00;1.90;;;17.00;51.50;;;;;;5062038;28;20412;-69
2021/12/21 12:03:25;;;;;;;1.30;1.20;;;16.40;50.60;;;;;;5075676;28;20417;-68
2021/12/21 12:05:54;;;;;;;1.33;1.23;;;14.90;50.80;;;;;;5075401;28;20400;-69
2021/12/21 12:08:21;;;;;;;1.57;1.47;;;15.00;52.40;;;;;;5075766;28;20404;-69
2021/12/21 12:10:49;;;;;;;1.60;1.33;;;15.00;52.50;;;;;;5065003;28;20463;-68
2021/12/21 12:13:27;;;;;;;2.00;1.90;;;14.60;52.00;;;;;;5053132;28;20491;-69
2021/12/21 12:16:14;;;;;;;1.60;1.17;;;15.60;52.90;;;;;;5054703;28;20531;-68
2021/12/21 12:18:42;;;;;;;2.53;1.50;;;16.00;53.20;;;;;;5055179;28;20420;-69
2021/12/21 12:21:30;;;;;;;1.73;1.30;;;15.40;52.00;;;;;;5054912;28;20540;-69
2021/12/21 12:24:00;;;;;;;5.70;4.03;;;14.90;53.10;;;;;;5054896;28;20420;-69
2021/12/21 12:26:29;;;;;;;1.03;0.93;;;15.00;53.90;;;;;;5054570;28;20434;-68
2021/12/21 12:29:08;;;;;;;1.67;1.20;;;15.20;52.80;;;;;;5052605;28;20819;-69
2021/12/21 12:31:37;;;;;;;1.13;1.03;;;16.30;53.10;;;;;;5035170;28;20417;-68
2021/12/21 12:34:04;;;;;;;1.23;1.13;;;16.50;52.50;;;;;;5054641;28;20461;-69
2021/12/21 12:36:49;;;;;;;1.17;1.07;;;15.50;51.00;;;;;;5054261;28;21020;-69
2021/12/21 12:39:28;;;;;;;1.80;1.70;;;15.50;51.50;;;;;;5053249;28;20424;-68
2021/12/21 12:41:59;;;;;;;2.50;1.43;;;15.60;52.50;;;;;;5054532;28;20393;-70
2021/12/21 12:44:25;;;;;;;1.10;1.00;;;14.40;52.00;;;;;;5054294;28;20421;-68
2021/12/21 12:46:53;;;;;;;0.80;0.70;;;14.60;53.60;;;;;;5047177;28;20426;-69
2021/12/21 12:49:25;;;;;;;1.10;1.00;;;15.30;53.50;;;;;;5034645;28;20203;-69
2021/12/21 12:51:51;;;;;;;2.30;1.23;;;15.70;53.30;;;;;;5034381;28;20795;-69
2021/12/21 12:54:19;;;;;;;2.50;1.97;;;16.60;52.80;;;;;;5034223;28;20402;-70
2021/12/21 12:56:45;;;;;;;2.30;1.60;;;16.00;51.30;;;;;;5034101;28;20277;-70
2021/12/21 12:59:10;;;;;;;1.20;1.10;;;16.60;52.20;;;;;;5034397;28;20449;-69
2021/12/21 13:01:43;;;;;;;1.50;1.40;;;16.90;51.70;;;;;;5051024;28;20175;-69
2021/12/21 13:04:12;;;;;;;1.30;1.20;;;16.80;51.60;;;;;;5054238;28;20536;-69
2021/12/21 13:06:40;;;;;;;2.07;1.97;;;15.60;51.10;;;;;;5053749;28;20408;-69
2021/12/21 13:09:08;;;;;;;2.70;1.60;;;15.70;51.90;;;;;;5053984;28;20488;-69
2021/12/21 13:11:37;;;;;;;4.60;3.17;;;15.90;51.60;;;;;;5053931;28;20480;-68
2021/12/21 13:14:03;;;;;;;2.10;1.43;;;16.00;51.50;;;;;;5052506;28;20958;-69
2021/12/21 13:16:33;;;;;;;1.37;1.27;;;16.20;51.20;;;;;;5052031;28;20461;-69
2021/12/21 13:19:11;;;;;;;2.03;1.17;;;15.90;51.60;;;;;;5053814;28;20398;-70
2021/12/21 13:21:54;;;;;;;3.20;3.00;;;14.20;51.50;;;;;;5053819;28;20471;-69
2021/12/21 13:24:23;;;;;;;1.63;0.70;;;12.60;53.50;;;;;;5053826;28;20455;-69
2021/12/21 13:26:55;;;;;;;1.63;1.10;;;11.20;55.50;;;;;;5053573;28;20899;-69
2021/12/21 13:29:24;;;;;;;2.97;1.23;;;10.10;58.00;;;;;;5053612;28;20432;-69
2021/12/21 13:31:52;;;;;;;4.03;3.63;;;8.90;61.60;;;;;;5053584;28;20417;-68
2021/12/21 13:34:19;;;;;;;1.00;0.90;;;8.30;65.90;;;;;;5050257;28;20508;-69
2021/12/21 13:37:07;;;;;;;0.90;0.73;;;7.90;70.30;;;;;;5053086;28;20448;-69
2021/12/21 13:39:38;;;;;;;1.03;0.93;;;7.40;77.60;;;;;;5053456;28;20412;-68
2021/12/21 13:42:14;;;;;;;0.70;0.50;;;6.60;89.10;;;;;;5053383;28;20421;-69
2021/12/21 13:44:52;;;;;;;1.17;1.07;;;6.20;98.90;;;;;;5053321;28;20401;-69
2021/12/21 13:47:25;;;;;;;0.70;0.53;;;6.10;99.90;;;;;;5042913;28;20919;-70
2021/12/21 13:50:10;;;;;;;0.80;0.70;;;5.80;99.90;;;;;;5051379;28;20419;-69
2021/12/21 13:52:43;;;;;;;0.70;0.50;;;5.60;99.90;;;;;;5052819;28;20508;-69
2021/12/21 13:55:32;;;;;;;0.80;0.50;;;5.30;99.90;;;;;;5052782;28;20433;-68
2021/12/21 13:58:02;;;;;;;8.77;1.30;;;5.20;99.90;;;;;;5053008;28;20899;-68
2021/12/21 14:00:30;;;;;;;0.70;0.50;;;5.10;99.90;;;;;;5053048;28;20410;-68
2021/12/21 14:03:05;;;;;;;0.70;0.50;;;4.90;99.90;;;;;;5052863;28;20425;-69
2021/12/21 14:05:42;;;;;;;0.70;0.50;;;4.80;99.90;;;;;;5057976;28;20413;-69
2021/12/21 14:08:08;;;;;;;0.70;0.50;;;4.70;99.90;;;;;;5033069;28;20444;-69
2021/12/21 14:10:43;;;;;;;1.07;0.97;;;4.50;99.90;;;;;;5031745;28;20419;-69
2021/12/21 14:13:09;;;;;;;1.20;1.10;;;4.60;99.90;;;;;;5030519;28;20517;-69
2021/12/21 14:15:36;;;;;;;0.70;0.50;;;4.60;99.90;;;;;;5031304;28;20418;-69
2021/12/21 14:18:31;;;;;;;0.70;0.50;;;4.50;99.90;;;;;;5063240;28;20194;-69